sensor_id;sensor_type;location;lat;lon;timestamp;P1;durP1;ratioP1;P2;durP2;ratioP2
37905;SDS011;23739;51.448;6.674;2023-06-19T00:00:32;6.30;;;5.50;;
37905;SDS011;23739;51.448;6.674;2023-06-19T00:02:58;6.00;;;4.90;;
37905;SDS011;23739;51.448;6.674;2023-06-19T00:05:24;6.95;;;5.32;;
37905;SDS011;23739;51.448;6.674;2023-06-19T00:07:50;7.53;;;5.68;;
37905;SDS011;23739;51.448;6.674;2023-06-19T00:10:17;8.30;;;5.70;;
37905;SDS011;23739;51.448;6.674;2023-06-19T00:12:43;7.47;;;6.10;;
37905;SDS011;23739;51.448;6.674;2023-06-19T00:15:09;5.80;;;5.20;;
37905;SDS011;23739;51.448;6.674;2023-06-19T00:17:35;6.28;;;5.68;;
37905;SDS011;23739;51.448;6.674;2023-06-19T00:20:04;6.78;;;5.22;;
37905;SDS011;23739;51.448;6.674;2023-06-19T00:22:31;8.10;;;5.57;;
37905;SDS011;23739;51.448;6.674;2023-06-19T00:24:57;6.45;;;5.22;;
37905;SDS011;23739;51.448;6.674;2023-06-19T00:27:23;6.03;;;5.43;;
37905;SDS011;23739;51.448;6.674;2023-06-19T00:29:52;7.85;;;5.93;;
37905;SDS011;23739;51.448;6.674;2023-06-19T00:32:18;5.97;;;5.43;;
37905;SDS011;23739;51.448;6.674;2023-06-19T00:34:45;6.47;;;5.88;;
37905;SDS011;23739;51.448;6.674;2023-06-19T00:37:11;6.05;;;5.45;;
37905;SDS011;23739;51.448;6.674;2023-06-19T00:39:38;6.30;;;5.47;;
37905;SDS011;23739;51.448;6.674;2023-06-19T00:42:05;6.90;;;5.10;;
37905;SDS011;23739;51.448;6.674;2023-06-19T00:44:31;5.80;;;5.28;;
37905;SDS011;23739;51.448;6.674;2023-06-19T00:46:58;6.25;;;5.45;;
37905;SDS011;23739;51.448;6.674;2023-06-19T00:49:25;6.85;;;5.72;;
37905;SDS011;23739;51.448;6.674;2023-06-19T00:51:51;6.53;;;4.90;;
37905;SDS011;23739;51.448;6.674;2023-06-19T00:54:18;10.15;;;6.75;;
37905;SDS011;23739;51.448;6.674;2023-06-19T00:56:44;5.43;;;4.82;;
37905;SDS011;23739;51.448;6.674;2023-06-19T00:59:19;6.13;;;5.45;;
37905;SDS011;23739;51.448;6.674;2023-06-19T01:01:46;5.70;;;5.10;;
37905;SDS011;23739;51.448;6.674;2023-06-19T01:04:12;7.00;;;5.03;;
37905;SDS011;23739;51.448;6.674;2023-06-19T01:07:02;7.40;;;5.20;;
37905;SDS011;23739;51.448;6.674;2023-06-19T01:09:28;5.70;;;5.20;;
37905;SDS011;23739;51.448;6.674;2023-06-19T01:11:59;6.32;;;5.38;;
37905;SDS011;23739;51.448;6.674;2023-06-19T01:14:30;7.05;;;4.60;;
37905;SDS011;23739;51.448;6.674;2023-06-19T01:16:56;5.72;;;5.18;;
37905;SDS011;23739;51.448;6.674;2023-06-19T01:19:22;6.75;;;4.60;;
37905;SDS011;23739;51.448;6.674;2023-06-19T01:21:51;5.05;;;4.55;;
37905;SDS011;23739;51.448;6.674;2023-06-19T01:24:17;7.85;;;5.70;;
37905;SDS011;23739;51.448;6.674;2023-06-19T01:26:43;6.57;;;4.88;;
37905;SDS011;23739;51.448;6.674;2023-06-19T01:29:11;6.97;;;6.25;;
37905;SDS011;23739;51.448;6.674;2023-06-19T01:31:42;7.80;;;5.30;;
37905;SDS011;23739;51.448;6.674;2023-06-19T01:34:09;9.32;;;5.57;;
37905;SDS011;23739;51.448;6.674;2023-06-19T01:36:36;7.15;;;5.22;;
37905;SDS011;23739;51.448;6.674;2023-06-19T01:39:03;5.75;;;5.22;;
37905;SDS011;23739;51.448;6.674;2023-06-19T01:41:29;6.35;;;5.40;;
37905;SDS011;23739;51.448;6.674;2023-06-19T01:43:56;7.07;;;5.15;;
37905;SDS011;23739;51.448;6.674;2023-06-19T01:46:23;6.32;;;5.68;;
37905;SDS011;23739;51.448;6.674;2023-06-19T01:48:49;6.45;;;5.30;;
37905;SDS011;23739;51.448;6.674;2023-06-19T01:51:15;7.38;;;5.25;;
37905;SDS011;23739;51.448;6.674;2023-06-19T01:53:41;6.60;;;5.60;;
37905;SDS011;23739;51.448;6.674;2023-06-19T01:56:07;10.23;;;5.57;;
37905;SDS011;23739;51.448;6.674;2023-06-19T01:58:34;7.10;;;5.30;;
37905;SDS011;23739;51.448;6.674;2023-06-19T02:01:00;5.78;;;5.15;;
37905;SDS011;23739;51.448;6.674;2023-06-19T02:03:26;5.78;;;5.25;;
37905;SDS011;23739;51.448;6.674;2023-06-19T02:05:52;6.05;;;5.55;;
37905;SDS011;23739;51.448;6.674;2023-06-19T02:08:18;6.80;;;5.68;;
37905;SDS011;23739;51.448;6.674;2023-06-19T02:10:44;6.30;;;5.70;;
37905;SDS011;23739;51.448;6.674;2023-06-19T02:13:10;7.03;;;5.57;;
37905;SDS011;23739;51.448;6.674;2023-06-19T02:15:37;7.60;;;5.28;;
37905;SDS011;23739;51.448;6.674;2023-06-19T02:18:03;6.72;;;6.10;;
37905;SDS011;23739;51.448;6.674;2023-06-19T02:20:30;5.70;;;5.22;;
37905;SDS011;23739;51.448;6.674;2023-06-19T02:22:57;6.45;;;5.25;;
37905;SDS011;23739;51.448;6.674;2023-06-19T02:25:23;6.25;;;5.65;;
37905;SDS011;23739;51.448;6.674;2023-06-19T02:27:49;6.03;;;5.43;;
37905;SDS011;23739;51.448;6.674;2023-06-19T02:30:15;6.60;;;5.40;;
37905;SDS011;23739;51.448;6.674;2023-06-19T02:32:41;8.10;;;5.78;;
37905;SDS011;23739;51.448;6.674;2023-06-19T02:35:10;7.00;;;5.45;;
37905;SDS011;23739;51.448;6.674;2023-06-19T02:37:37;6.03;;;5.43;;
37905;SDS011;23739;51.448;6.674;2023-06-19T02:40:04;5.82;;;5.32;;
37905;SDS011;23739;51.448;6.674;2023-06-19T02:42:30;5.82;;;5.20;;
37905;SDS011;23739;51.448;6.674;2023-06-19T02:44:56;5.90;;;5.05;;
37905;SDS011;23739;51.448;6.674;2023-06-19T02:47:28;5.63;;;4.88;;
37905;SDS011;23739;51.448;6.674;2023-06-19T02:49:54;5.78;;;4.50;;
37905;SDS011;23739;51.448;6.674;2023-06-19T02:52:20;7.88;;;4.97;;
37905;SDS011;23739;51.448;6.674;2023-06-19T02:54:46;5.45;;;5.00;;
37905;SDS011;23739;51.448;6.674;2023-06-19T02:57:12;5.18;;;4.63;;
37905;SDS011;23739;51.448;6.674;2023-06-19T02:59:38;4.47;;;4.07;;
37905;SDS011;23739;51.448;6.674;2023-06-19T03:02:04;6.30;;;4.13;;
37905;SDS011;23739;51.448;6.674;2023-06-19T03:04:30;3.45;;;3.10;;
37905;SDS011;23739;51.448;6.674;2023-06-19T03:06:57;3.53;;;3.22;;
37905;SDS011;23739;51.448;6.674;2023-06-19T03:09:23;5.30;;;3.97;;
37905;SDS011;23739;51.448;6.674;2023-06-19T03:11:49;4.07;;;3.47;;
37905;SDS011;23739;51.448;6.674;2023-06-19T03:14:15;3.38;;;3.08;;
37905;SDS011;23739;51.448;6.674;2023-06-19T03:16:41;3.33;;;3.03;;
37905;SDS011;23739;51.448;6.674;2023-06-19T03:19:07;5.60;;;3.35;;
37905;SDS011;23739;51.448;6.674;2023-06-19T03:21:33;4.90;;;3.80;;
37905;SDS011;23739;51.448;6.674;2023-06-19T03:24:00;6.35;;;3.03;;
37905;SDS011;23739;51.448;6.674;2023-06-19T03:26:26;6.05;;;3.25;;
37905;SDS011;23739;51.448;6.674;2023-06-19T03:28:52;3.60;;;3.05;;
37905;SDS011;23739;51.448;6.674;2023-06-19T03:31:19;4.10;;;3.30;;
37905;SDS011;23739;51.448;6.674;2023-06-19T03:33:45;3.50;;;3.20;;
37905;SDS011;23739;51.448;6.674;2023-06-19T03:36:11;4.18;;;3.78;;
37905;SDS011;23739;51.448;6.674;2023-06-19T03:38:37;4.88;;;2.83;;
37905;SDS011;23739;51.448;6.674;2023-06-19T03:41:03;4.72;;;3.92;;
37905;SDS011;23739;51.448;6.674;2023-06-19T03:43:29;4.25;;;3.28;;
37905;SDS011;23739;51.448;6.674;2023-06-19T03:45:55;4.13;;;3.72;;
37905;SDS011;23739;51.448;6.674;2023-06-19T03:48:22;4.35;;;3.28;;
37905;SDS011;23739;51.448;6.674;2023-06-19T03:50:48;4.55;;;3.25;;
37905;SDS011;23739;51.448;6.674;2023-06-19T03:53:14;5.28;;;3.70;;
37905;SDS011;23739;51.448;6.674;2023-06-19T03:55:40;7.45;;;3.55;;
37905;SDS011;23739;51.448;6.674;2023-06-19T03:58:06;4.85;;;2.83;;
37905;SDS011;23739;51.448;6.674;2023-06-19T04:00:33;4.75;;;3.58;;
37905;SDS011;23739;51.448;6.674;2023-06-19T04:02:59;4.93;;;3.53;;
37905;SDS011;23739;51.448;6.674;2023-06-19T04:05:25;4.13;;;3.15;;
37905;SDS011;23739;51.448;6.674;2023-06-19T04:07:51;3.78;;;3.35;;
37905;SDS011;23739;51.448;6.674;2023-06-19T04:10:17;4.28;;;3.20;;
37905;SDS011;23739;51.448;6.674;2023-06-19T04:12:43;5.75;;;3.63;;
37905;SDS011;23739;51.448;6.674;2023-06-19T04:15:10;4.68;;;3.70;;
37905;SDS011;23739;51.448;6.674;2023-06-19T04:17:36;5.20;;;3.42;;
37905;SDS011;23739;51.448;6.674;2023-06-19T04:20:03;3.78;;;3.00;;
37905;SDS011;23739;51.448;6.674;2023-06-19T04:22:36;3.33;;;2.95;;
37905;SDS011;23739;51.448;6.674;2023-06-19T04:25:02;3.42;;;3.00;;
37905;SDS011;23739;51.448;6.674;2023-06-19T04:27:29;3.38;;;2.88;;
37905;SDS011;23739;51.448;6.674;2023-06-19T04:29:55;3.67;;;3.08;;
37905;SDS011;23739;51.448;6.674;2023-06-19T04:32:21;5.47;;;2.60;;
37905;SDS011;23739;51.448;6.674;2023-06-19T04:34:47;3.55;;;2.70;;
37905;SDS011;23739;51.448;6.674;2023-06-19T04:37:13;3.28;;;2.70;;
37905;SDS011;23739;51.448;6.674;2023-06-19T04:39:39;3.05;;;2.33;;
37905;SDS011;23739;51.448;6.674;2023-06-19T04:42:05;3.25;;;2.88;;
37905;SDS011;23739;51.448;6.674;2023-06-19T04:44:31;3.55;;;2.58;;
37905;SDS011;23739;51.448;6.674;2023-06-19T04:46:58;3.92;;;2.90;;
37905;SDS011;23739;51.448;6.674;2023-06-19T04:49:29;3.78;;;2.45;;
37905;SDS011;23739;51.448;6.674;2023-06-19T04:51:56;3.15;;;2.40;;
37905;SDS011;23739;51.448;6.674;2023-06-19T04:54:22;4.85;;;2.90;;
37905;SDS011;23739;51.448;6.674;2023-06-19T04:56:48;3.58;;;2.47;;
37905;SDS011;23739;51.448;6.674;2023-06-19T04:59:14;3.35;;;2.75;;
37905;SDS011;23739;51.448;6.674;2023-06-19T05:01:43;3.83;;;2.60;;
37905;SDS011;23739;51.448;6.674;2023-06-19T05:04:09;3.47;;;2.75;;
37905;SDS011;23739;51.448;6.674;2023-06-19T05:06:38;3.33;;;2.90;;
37905;SDS011;23739;51.448;6.674;2023-06-19T05:09:05;3.10;;;2.78;;
37905;SDS011;23739;51.448;6.674;2023-06-19T05:11:31;3.28;;;2.80;;
37905;SDS011;23739;51.448;6.674;2023-06-19T05:13:57;4.50;;;3.45;;
37905;SDS011;23739;51.448;6.674;2023-06-19T05:16:24;4.18;;;3.00;;
37905;SDS011;23739;51.448;6.674;2023-06-19T05:18:50;3.28;;;2.97;;
37905;SDS011;23739;51.448;6.674;2023-06-19T05:21:16;4.32;;;3.03;;
37905;SDS011;23739;51.448;6.674;2023-06-19T05:23:42;4.68;;;3.25;;
37905;SDS011;23739;51.448;6.674;2023-06-19T05:26:08;4.07;;;2.88;;
37905;SDS011;23739;51.448;6.674;2023-06-19T05:28:34;4.30;;;2.80;;
37905;SDS011;23739;51.448;6.674;2023-06-19T05:31:00;3.75;;;2.60;;
37905;SDS011;23739;51.448;6.674;2023-06-19T05:33:27;2.85;;;2.20;;
37905;SDS011;23739;51.448;6.674;2023-06-19T05:35:53;3.33;;;2.88;;
37905;SDS011;23739;51.448;6.674;2023-06-19T05:38:19;3.55;;;2.53;;
37905;SDS011;23739;51.448;6.674;2023-06-19T05:40:45;4.18;;;2.80;;
37905;SDS011;23739;51.448;6.674;2023-06-19T05:43:12;3.25;;;2.80;;
37905;SDS011;23739;51.448;6.674;2023-06-19T05:45:38;3.17;;;2.63;;
37905;SDS011;23739;51.448;6.674;2023-06-19T05:48:04;3.50;;;2.80;;
37905;SDS011;23739;51.448;6.674;2023-06-19T05:50:30;6.80;;;3.35;;
37905;SDS011;23739;51.448;6.674;2023-06-19T05:52:56;3.60;;;2.30;;
37905;SDS011;23739;51.448;6.674;2023-06-19T05:55:22;3.47;;;2.97;;
37905;SDS011;23739;51.448;6.674;2023-06-19T05:57:52;3.55;;;2.72;;
37905;SDS011;23739;51.448;6.674;2023-06-19T06:00:19;3.30;;;2.55;;
37905;SDS011;23739;51.448;6.674;2023-06-19T06:02:45;2.60;;;2.15;;
37905;SDS011;23739;51.448;6.674;2023-06-19T06:05:11;2.40;;;2.20;;
37905;SDS011;23739;51.448;6.674;2023-06-19T06:07:37;3.65;;;2.53;;
37905;SDS011;23739;51.448;6.674;2023-06-19T06:10:03;3.90;;;3.05;;
37905;SDS011;23739;51.448;6.674;2023-06-19T06:12:30;3.60;;;2.67;;
37905;SDS011;23739;51.448;6.674;2023-06-19T06:14:56;4.82;;;3.50;;
37905;SDS011;23739;51.448;6.674;2023-06-19T06:17:22;2.92;;;2.67;;
37905;SDS011;23739;51.448;6.674;2023-06-19T06:19:48;3.42;;;2.78;;
37905;SDS011;23739;51.448;6.674;2023-06-19T06:22:14;4.22;;;2.40;;
37905;SDS011;23739;51.448;6.674;2023-06-19T06:24:40;4.78;;;2.50;;
37905;SDS011;23739;51.448;6.674;2023-06-19T06:27:06;4.22;;;2.53;;
37905;SDS011;23739;51.448;6.674;2023-06-19T06:29:32;4.03;;;2.90;;
37905;SDS011;23739;51.448;6.674;2023-06-19T06:32:05;4.30;;;3.05;;
37905;SDS011;23739;51.448;6.674;2023-06-19T06:34:33;3.92;;;2.80;;
37905;SDS011;23739;51.448;6.674;2023-06-19T06:36:59;3.92;;;2.10;;
37905;SDS011;23739;51.448;6.674;2023-06-19T06:39:25;3.53;;;2.53;;
37905;SDS011;23739;51.448;6.674;2023-06-19T06:41:51;4.10;;;3.08;;
37905;SDS011;23739;51.448;6.674;2023-06-19T06:44:18;3.33;;;2.45;;
37905;SDS011;23739;51.448;6.674;2023-06-19T06:46:44;2.65;;;2.42;;
37905;SDS011;23739;51.448;6.674;2023-06-19T06:49:10;3.22;;;2.55;;
37905;SDS011;23739;51.448;6.674;2023-06-19T06:51:37;5.15;;;2.80;;
37905;SDS011;23739;51.448;6.674;2023-06-19T06:54:03;5.72;;;2.97;;
37905;SDS011;23739;51.448;6.674;2023-06-19T06:56:29;3.97;;;2.30;;
37905;SDS011;23739;51.448;6.674;2023-06-19T06:58:55;5.57;;;2.75;;
37905;SDS011;23739;51.448;6.674;2023-06-19T07:01:21;2.80;;;2.55;;
37905;SDS011;23739;51.448;6.674;2023-06-19T07:03:47;2.08;;;1.88;;
37905;SDS011;23739;51.448;6.674;2023-06-19T07:06:13;3.13;;;2.28;;
37905;SDS011;23739;51.448;6.674;2023-06-19T07:08:39;2.85;;;2.28;;
37905;SDS011;23739;51.448;6.674;2023-06-19T07:11:06;2.70;;;2.47;;
37905;SDS011;23739;51.448;6.674;2023-06-19T07:13:32;2.47;;;2.28;;
37905;SDS011;23739;51.448;6.674;2023-06-19T07:15:58;5.10;;;2.75;;
37905;SDS011;23739;51.448;6.674;2023-06-19T07:18:26;2.58;;;2.38;;
37905;SDS011;23739;51.448;6.674;2023-06-19T07:20:52;3.38;;;2.20;;
37905;SDS011;23739;51.448;6.674;2023-06-19T07:23:18;5.00;;;2.88;;
37905;SDS011;23739;51.448;6.674;2023-06-19T07:25:45;3.58;;;2.40;;
37905;SDS011;23739;51.448;6.674;2023-06-19T07:28:12;2.97;;;2.30;;
37905;SDS011;23739;51.448;6.674;2023-06-19T07:30:38;3.58;;;2.72;;
37905;SDS011;23739;51.448;6.674;2023-06-19T07:33:04;2.78;;;2.42;;
37905;SDS011;23739;51.448;6.674;2023-06-19T07:35:31;4.38;;;3.25;;
37905;SDS011;23739;51.448;6.674;2023-06-19T07:37:57;2.85;;;2.65;;
37905;SDS011;23739;51.448;6.674;2023-06-19T07:40:23;4.50;;;2.35;;
37905;SDS011;23739;51.448;6.674;2023-06-19T07:42:49;3.22;;;2.92;;
37905;SDS011;23739;51.448;6.674;2023-06-19T07:45:15;5.03;;;2.60;;
37905;SDS011;23739;51.448;6.674;2023-06-19T07:47:41;4.20;;;2.65;;
37905;SDS011;23739;51.448;6.674;2023-06-19T07:50:07;2.58;;;2.38;;
37905;SDS011;23739;51.448;6.674;2023-06-19T07:52:34;4.60;;;2.85;;
37905;SDS011;23739;51.448;6.674;2023-06-19T07:55:00;3.08;;;2.78;;
37905;SDS011;23739;51.448;6.674;2023-06-19T07:57:26;3.92;;;2.65;;
37905;SDS011;23739;51.448;6.674;2023-06-19T07:59:53;3.80;;;2.70;;
37905;SDS011;23739;51.448;6.674;2023-06-19T08:02:19;3.70;;;2.70;;
37905;SDS011;23739;51.448;6.674;2023-06-19T08:04:48;7.18;;;3.17;;
37905;SDS011;23739;51.448;6.674;2023-06-19T08:07:14;2.60;;;2.40;;
37905;SDS011;23739;51.448;6.674;2023-06-19T08:09:40;3.33;;;2.33;;
37905;SDS011;23739;51.448;6.674;2023-06-19T08:12:06;2.40;;;2.20;;
37905;SDS011;23739;51.448;6.674;2023-06-19T08:14:33;2.90;;;2.40;;
37905;SDS011;23739;51.448;6.674;2023-06-19T08:16:59;3.58;;;2.78;;
37905;SDS011;23739;51.448;6.674;2023-06-19T08:19:25;3.20;;;1.95;;
37905;SDS011;23739;51.448;6.674;2023-06-19T08:21:51;2.58;;;2.20;;
37905;SDS011;23739;51.448;6.674;2023-06-19T08:24:17;2.58;;;1.73;;
37905;SDS011;23739;51.448;6.674;2023-06-19T08:26:43;3.28;;;2.63;;
37905;SDS011;23739;51.448;6.674;2023-06-19T08:29:09;5.88;;;2.30;;
37905;SDS011;23739;51.448;6.674;2023-06-19T08:31:35;5.20;;;2.60;;
37905;SDS011;23739;51.448;6.674;2023-06-19T08:34:01;4.90;;;2.13;;
37905;SDS011;23739;51.448;6.674;2023-06-19T08:36:32;6.53;;;3.00;;
37905;SDS011;23739;51.448;6.674;2023-06-19T08:38:59;3.17;;;2.20;;
37905;SDS011;23739;51.448;6.674;2023-06-19T08:41:25;4.05;;;2.40;;
37905;SDS011;23739;51.448;6.674;2023-06-19T08:43:51;2.65;;;2.17;;
37905;SDS011;23739;51.448;6.674;2023-06-19T08:46:17;6.03;;;3.08;;
37905;SDS011;23739;51.448;6.674;2023-06-19T08:48:44;3.83;;;2.20;;
37905;SDS011;23739;51.448;6.674;2023-06-19T08:51:10;3.47;;;2.60;;
37905;SDS011;23739;51.448;6.674;2023-06-19T08:53:43;4.25;;;2.45;;
37905;SDS011;23739;51.448;6.674;2023-06-19T08:56:09;2.97;;;2.53;;
37905;SDS011;23739;51.448;6.674;2023-06-19T08:58:36;7.43;;;2.13;;
37905;SDS011;23739;51.448;6.674;2023-06-19T09:01:02;2.92;;;2.10;;
37905;SDS011;23739;51.448;6.674;2023-06-19T09:03:28;4.15;;;2.63;;
37905;SDS011;23739;51.448;6.674;2023-06-19T09:05:55;3.40;;;2.90;;
37905;SDS011;23739;51.448;6.674;2023-06-19T09:08:21;3.25;;;2.65;;
37905;SDS011;23739;51.448;6.674;2023-06-19T09:13:22;4.68;;;2.65;;
37905;SDS011;23739;51.448;6.674;2023-06-19T09:15:56;4.75;;;2.92;;
37905;SDS011;23739;51.448;6.674;2023-06-19T09:18:22;3.65;;;3.00;;
37905;SDS011;23739;51.448;6.674;2023-06-19T09:20:51;3.35;;;2.83;;
37905;SDS011;23739;51.448;6.674;2023-06-19T09:23:17;3.10;;;2.80;;
37905;SDS011;23739;51.448;6.674;2023-06-19T09:25:44;3.22;;;2.67;;
37905;SDS011;23739;51.448;6.674;2023-06-19T09:28:17;3.13;;;2.45;;
37905;SDS011;23739;51.448;6.674;2023-06-19T09:33:29;5.55;;;2.90;;
37905;SDS011;23739;51.448;6.674;2023-06-19T09:35:56;6.10;;;2.70;;
37905;SDS011;23739;51.448;6.674;2023-06-19T09:38:26;3.83;;;2.60;;
37905;SDS011;23739;51.448;6.674;2023-06-19T09:40:53;5.28;;;3.45;;
37905;SDS011;23739;51.448;6.674;2023-06-19T09:43:22;4.85;;;2.63;;
37905;SDS011;23739;51.448;6.674;2023-06-19T09:45:49;3.97;;;3.58;;
37905;SDS011;23739;51.448;6.674;2023-06-19T09:48:17;3.13;;;2.83;;
37905;SDS011;23739;51.448;6.674;2023-06-19T09:50:45;6.10;;;3.38;;
37905;SDS011;23739;51.448;6.674;2023-06-19T09:53:15;5.32;;;3.33;;
37905;SDS011;23739;51.448;6.674;2023-06-19T09:55:41;4.50;;;3.22;;
37905;SDS011;23739;51.448;6.674;2023-06-19T09:58:07;4.65;;;3.08;;
37905;SDS011;23739;51.448;6.674;2023-06-19T10:00:34;5.47;;;3.78;;
37905;SDS011;23739;51.448;6.674;2023-06-19T10:03:02;4.22;;;3.33;;
37905;SDS011;23739;51.448;6.674;2023-06-19T10:05:30;6.63;;;4.00;;
37905;SDS011;23739;51.448;6.674;2023-06-19T10:07:58;4.97;;;3.13;;
37905;SDS011;23739;51.448;6.674;2023-06-19T10:10:26;6.05;;;4.30;;
37905;SDS011;23739;51.448;6.674;2023-06-19T10:12:58;5.47;;;4.28;;
37905;SDS011;23739;51.448;6.674;2023-06-19T10:15:25;4.90;;;3.85;;
37905;SDS011;23739;51.448;6.674;2023-06-19T10:18:01;3.97;;;3.58;;
37905;SDS011;23739;51.448;6.674;2023-06-19T10:20:37;8.68;;;4.57;;
37905;SDS011;23739;51.448;6.674;2023-06-19T10:25:33;5.65;;;4.32;;
37905;SDS011;23739;51.448;6.674;2023-06-19T10:28:00;5.55;;;4.30;;
37905;SDS011;23739;51.448;6.674;2023-06-19T10:30:26;4.63;;;3.95;;
37905;SDS011;23739;51.448;6.674;2023-06-19T10:32:54;5.30;;;3.70;;
37905;SDS011;23739;51.448;6.674;2023-06-19T10:35:20;5.13;;;3.80;;
37905;SDS011;23739;51.448;6.674;2023-06-19T10:37:47;5.38;;;3.97;;
37905;SDS011;23739;51.448;6.674;2023-06-19T10:40:13;8.85;;;4.80;;
37905;SDS011;23739;51.448;6.674;2023-06-19T10:42:40;6.13;;;3.95;;
37905;SDS011;23739;51.448;6.674;2023-06-19T10:45:07;5.32;;;3.45;;
37905;SDS011;23739;51.448;6.674;2023-06-19T10:47:34;5.78;;;4.82;;
37905;SDS011;23739;51.448;6.674;2023-06-19T10:50:00;4.70;;;4.20;;
37905;SDS011;23739;51.448;6.674;2023-06-19T10:52:30;4.07;;;3.67;;
37905;SDS011;23739;51.448;6.674;2023-06-19T10:54:56;7.43;;;4.90;;
37905;SDS011;23739;51.448;6.674;2023-06-19T10:57:29;5.60;;;4.90;;
37905;SDS011;23739;51.448;6.674;2023-06-19T10:59:56;5.05;;;4.30;;
37905;SDS011;23739;51.448;6.674;2023-06-19T11:02:23;8.38;;;4.75;;
37905;SDS011;23739;51.448;6.674;2023-06-19T11:04:53;6.38;;;4.88;;
37905;SDS011;23739;51.448;6.674;2023-06-19T11:07:19;5.60;;;4.63;;
37905;SDS011;23739;51.448;6.674;2023-06-19T11:09:46;6.05;;;4.50;;
37905;SDS011;23739;51.448;6.674;2023-06-19T11:12:12;4.32;;;3.92;;
37905;SDS011;23739;51.448;6.674;2023-06-19T11:14:38;7.20;;;4.78;;
37905;SDS011;23739;51.448;6.674;2023-06-19T11:17:08;5.13;;;4.28;;
37905;SDS011;23739;51.448;6.674;2023-06-19T11:19:34;4.68;;;4.28;;
37905;SDS011;23739;51.448;6.674;2023-06-19T11:22:01;5.93;;;4.45;;
37905;SDS011;23739;51.448;6.674;2023-06-19T11:24:28;6.90;;;4.85;;
37905;SDS011;23739;51.448;6.674;2023-06-19T11:26:55;4.57;;;3.75;;
37905;SDS011;23739;51.448;6.674;2023-06-19T11:29:24;7.03;;;4.38;;
37905;SDS011;23739;51.448;6.674;2023-06-19T11:31:51;5.97;;;4.25;;
37905;SDS011;23739;51.448;6.674;2023-06-19T11:34:19;5.72;;;3.90;;
37905;SDS011;23739;51.448;6.674;2023-06-19T11:36:45;7.70;;;4.57;;
37905;SDS011;23739;51.448;6.674;2023-06-19T11:39:12;9.15;;;5.68;;
37905;SDS011;23739;51.448;6.674;2023-06-19T11:41:38;5.85;;;4.25;;
37905;SDS011;23739;51.448;6.674;2023-06-19T11:44:06;5.40;;;4.90;;
37905;SDS011;23739;51.448;6.674;2023-06-19T11:46:34;7.38;;;4.95;;
37905;SDS011;23739;51.448;6.674;2023-06-19T11:49:16;5.50;;;4.15;;
37905;SDS011;23739;51.448;6.674;2023-06-19T11:51:44;4.53;;;4.10;;
37905;SDS011;23739;51.448;6.674;2023-06-19T11:54:11;4.75;;;4.28;;
37905;SDS011;23739;51.448;6.674;2023-06-19T11:56:37;5.18;;;4.55;;
37905;SDS011;23739;51.448;6.674;2023-06-19T11:59:04;7.15;;;4.70;;
37905;SDS011;23739;51.448;6.674;2023-06-19T12:01:31;8.30;;;4.40;;
37905;SDS011;23739;51.448;6.674;2023-06-19T12:03:57;6.00;;;5.03;;
37905;SDS011;23739;51.448;6.674;2023-06-19T12:06:23;6.57;;;4.40;;
37905;SDS011;23739;51.448;6.674;2023-06-19T12:08:50;5.82;;;4.47;;
37905;SDS011;23739;51.448;6.674;2023-06-19T12:11:16;10.70;;;4.90;;
37905;SDS011;23739;51.448;6.674;2023-06-19T12:13:43;5.32;;;4.75;;
37905;SDS011;23739;51.448;6.674;2023-06-19T12:16:13;15.27;;;5.13;;
37905;SDS011;23739;51.448;6.674;2023-06-19T12:18:39;5.80;;;4.63;;
37905;SDS011;23739;51.448;6.674;2023-06-19T12:21:05;5.82;;;4.38;;
37905;SDS011;23739;51.448;6.674;2023-06-19T12:23:34;4.95;;;4.45;;
37905;SDS011;23739;51.448;6.674;2023-06-19T12:26:00;4.70;;;4.30;;
37905;SDS011;23739;51.448;6.674;2023-06-19T12:28:27;4.55;;;4.07;;
37905;SDS011;23739;51.448;6.674;2023-06-19T12:30:53;5.75;;;4.75;;
37905;SDS011;23739;51.448;6.674;2023-06-19T12:33:21;4.72;;;4.10;;
37905;SDS011;23739;51.448;6.674;2023-06-19T12:35:47;6.88;;;5.03;;
37905;SDS011;23739;51.448;6.674;2023-06-19T12:38:13;5.20;;;4.70;;
37905;SDS011;23739;51.448;6.674;2023-06-19T12:40:39;4.65;;;4.13;;
37905;SDS011;23739;51.448;6.674;2023-06-19T12:43:06;6.35;;;5.63;;
37905;SDS011;23739;51.448;6.674;2023-06-19T12:45:32;6.47;;;4.60;;
37905;SDS011;23739;51.448;6.674;2023-06-19T12:47:58;4.93;;;4.43;;
37905;SDS011;23739;51.448;6.674;2023-06-19T12:50:24;5.75;;;4.38;;
37905;SDS011;23739;51.448;6.674;2023-06-19T12:52:50;6.70;;;5.10;;
37905;SDS011;23739;51.448;6.674;2023-06-19T12:55:17;4.63;;;3.90;;
37905;SDS011;23739;51.448;6.674;2023-06-19T12:57:43;5.60;;;4.47;;
37905;SDS011;23739;51.448;6.674;2023-06-19T13:00:10;7.55;;;4.93;;
37905;SDS011;23739;51.448;6.674;2023-06-19T13:02:37;6.18;;;4.07;;
37905;SDS011;23739;51.448;6.674;2023-06-19T13:05:04;5.28;;;4.78;;
37905;SDS011;23739;51.448;6.674;2023-06-19T13:07:30;7.38;;;4.43;;
37905;SDS011;23739;51.448;6.674;2023-06-19T13:09:57;5.40;;;4.22;;
37905;SDS011;23739;51.448;6.674;2023-06-19T13:12:23;7.38;;;4.78;;
37905;SDS011;23739;51.448;6.674;2023-06-19T13:14:51;5.22;;;3.88;;
37905;SDS011;23739;51.448;6.674;2023-06-19T13:17:18;5.85;;;4.63;;
37905;SDS011;23739;51.448;6.674;2023-06-19T13:19:45;5.72;;;4.10;;
37905;SDS011;23739;51.448;6.674;2023-06-19T13:22:14;5.78;;;4.65;;
37905;SDS011;23739;51.448;6.674;2023-06-19T13:24:44;6.50;;;4.85;;
37905;SDS011;23739;51.448;6.674;2023-06-19T13:27:11;7.15;;;4.20;;
37905;SDS011;23739;51.448;6.674;2023-06-19T13:29:37;6.65;;;4.88;;
37905;SDS011;23739;51.448;6.674;2023-06-19T13:32:05;5.15;;;4.65;;
37905;SDS011;23739;51.448;6.674;2023-06-19T13:34:34;7.68;;;4.32;;
37905;SDS011;23739;51.448;6.674;2023-06-19T13:37:00;4.65;;;4.10;;
37905;SDS011;23739;51.448;6.674;2023-06-19T13:39:27;8.93;;;4.50;;
37905;SDS011;23739;51.448;6.674;2023-06-19T13:41:53;4.53;;;4.05;;
37905;SDS011;23739;51.448;6.674;2023-06-19T13:44:20;6.68;;;4.47;;
37905;SDS011;23739;51.448;6.674;2023-06-19T13:46:46;5.22;;;4.72;;
37905;SDS011;23739;51.448;6.674;2023-06-19T13:49:12;6.95;;;3.88;;
37905;SDS011;23739;51.448;6.674;2023-06-19T13:51:39;5.53;;;3.95;;
37905;SDS011;23739;51.448;6.674;2023-06-19T13:54:06;5.38;;;3.90;;
37905;SDS011;23739;51.448;6.674;2023-06-19T13:56:32;4.95;;;4.38;;
37905;SDS011;23739;51.448;6.674;2023-06-19T13:58:58;6.95;;;4.57;;
37905;SDS011;23739;51.448;6.674;2023-06-19T14:01:24;4.32;;;3.92;;
37905;SDS011;23739;51.448;6.674;2023-06-19T14:03:51;4.80;;;4.18;;
37905;SDS011;23739;51.448;6.674;2023-06-19T14:06:17;4.78;;;4.38;;
37905;SDS011;23739;51.448;6.674;2023-06-19T14:08:44;5.50;;;4.25;;
37905;SDS011;23739;51.448;6.674;2023-06-19T14:11:10;7.05;;;4.43;;
37905;SDS011;23739;51.448;6.674;2023-06-19T14:13:36;5.18;;;4.43;;
37905;SDS011;23739;51.448;6.674;2023-06-19T14:16:03;5.15;;;4.65;;
37905;SDS011;23739;51.448;6.674;2023-06-19T14:18:29;6.70;;;4.20;;
37905;SDS011;23739;51.448;6.674;2023-06-19T14:20:55;5.70;;;3.83;;
37905;SDS011;23739;51.448;6.674;2023-06-19T14:23:21;4.65;;;4.10;;
37905;SDS011;23739;51.448;6.674;2023-06-19T14:25:47;4.28;;;3.80;;
37905;SDS011;23739;51.448;6.674;2023-06-19T14:28:14;4.47;;;4.07;;
37905;SDS011;23739;51.448;6.674;2023-06-19T14:30:40;4.80;;;3.40;;
37905;SDS011;23739;51.448;6.674;2023-06-19T14:33:07;4.10;;;3.58;;
37905;SDS011;23739;51.448;6.674;2023-06-19T14:35:39;3.85;;;3.45;;
37905;SDS011;23739;51.448;6.674;2023-06-19T14:38:05;5.88;;;3.47;;
37905;SDS011;23739;51.448;6.674;2023-06-19T14:40:34;4.65;;;3.75;;
37905;SDS011;23739;51.448;6.674;2023-06-19T14:43:00;5.45;;;3.92;;
37905;SDS011;23739;51.448;6.674;2023-06-19T14:45:26;5.28;;;4.07;;
37905;SDS011;23739;51.448;6.674;2023-06-19T14:47:53;4.53;;;3.95;;
37905;SDS011;23739;51.448;6.674;2023-06-19T14:50:19;4.68;;;3.90;;
37905;SDS011;23739;51.448;6.674;2023-06-19T14:52:45;4.45;;;3.33;;